Time;durP1;ratioP1;P1;durP2;ratioP2;P2;SDS_P1;SDS_P2;PMS_P1;PMS_P2;Temp;Humidity;BMP_temperature;BMP_pressure;BME280_temperature;BME280_humidity;BME280_pressure;Samples;Min_cycle;Max_cycle;Signal;HPM_P1;HPM_P2
2023/08/17 00:01:38;;;;;;;8.40;3.10;;;15.90;99.90;;;;;;5076303;28;20036;-64
2023/08/17 00:04:03;;;;;;;7.63;3.05;;;15.90;99.90;;;;;;5077721;28;20123;-65
2023/08/17 00:06:29;;;;;;;6.75;3.05;;;15.80;99.90;;;;;;5076826;28;20458;-65
2023/08/17 00:08:55;;;;;;;8.10;2.95;;;15.80;99.90;;;;;;5076603;28;20044;-64
2023/08/17 00:11:21;;;;;;;7.60;2.92;;;15.80;99.90;;;;;;5076878;28;20059;-64
2023/08/17 00:13:47;;;;;;;7.07;3.28;;;15.80;99.90;;;;;;5077126;28;20044;-65
2023/08/17 00:16:13;;;;;;;5.30;2.92;;;15.70;99.90;;;;;;5076148;28;20051;-65
2023/08/17 00:18:38;;;;;;;10.45;2.90;;;15.70;99.90;;;;;;5077039;28;20444;-65
2023/08/17 00:21:04;;;;;;;7.03;2.67;;;15.70;99.90;;;;;;5077184;28;20036;-65
2023/08/17 00:23:30;;;;;;;6.32;2.88;;;15.70;99.90;;;;;;5075599;28;20036;-64
2023/08/17 00:25:56;;;;;;;8.93;2.63;;;15.70;99.90;;;;;;5077014;28;20032;-64
2023/08/17 00:28:21;;;;;;;6.68;3.20;;;15.60;99.90;;;;;;5076487;28;20400;-66
2023/08/17 00:30:47;;;;;;;6.68;3.28;;;15.60;99.90;;;;;;5074592;28;20058;-67
2023/08/17 00:33:13;;;;;;;7.50;2.83;;;15.60;99.90;;;;;;5060112;28;20044;-65
2023/08/17 00:35:38;;;;;;;8.95;2.67;;;15.50;99.90;;;;;;5076694;28;20042;-65
2023/08/17 00:38:04;;;;;;;6.05;3.10;;;15.50;99.90;;;;;;5094211;28;20164;-65
2023/08/17 00:40:30;;;;;;;7.60;2.95;;;15.50;99.90;;;;;;5059743;28;20036;-65
2023/08/17 00:42:55;;;;;;;7.07;2.90;;;15.50;99.90;;;;;;5094734;28;20111;-64
2023/08/17 00:45:23;;;;;;;7.35;2.83;;;15.50;99.90;;;;;;5075946;28;20036;-64
2023/08/17 00:47:49;;;;;;;7.80;3.42;;;15.50;99.90;;;;;;5059707;28;20094;-65
2023/08/17 00:50:15;;;;;;;8.20;2.90;;;15.40;99.90;;;;;;5094173;28;20059;-65
2023/08/17 00:52:42;;;;;;;5.90;2.92;;;15.40;99.90;;;;;;5093365;28;20569;-65
2023/08/17 00:55:09;;;;;;;6.80;3.05;;;15.40;99.90;;;;;;5094266;28;20043;-65
2023/08/17 00:57:35;;;;;;;7.97;2.75;;;15.40;99.90;;;;;;5075243;28;20075;-65
2023/08/17 01:00:02;;;;;;;7.07;2.90;;;15.40;99.90;;;;;;5076698;28;20036;-65
2023/08/17 01:02:28;;;;;;;6.53;2.83;;;15.30;99.90;;;;;;5076248;28;20044;-65
2023/08/17 01:05:00;;;;;;;5.57;2.25;;;15.30;99.90;;;;;;5059163;28;20430;-65
2023/08/17 01:07:26;;;;;;;9.07;2.83;;;15.30;99.90;;;;;;5094250;28;20044;-65
2023/08/17 01:09:51;;;;;;;7.72;3.05;;;15.30;99.90;;;;;;5094063;28;20397;-65
2023/08/17 01:12:27;;;;;;;7.47;2.72;;;15.30;99.90;;;;;;5058339;28;20083;-65
2023/08/17 01:15:03;;;;;;;7.72;3.22;;;15.30;99.90;;;;;;5076307;28;20051;-65
2023/08/17 01:17:53;;;;;;;6.07;2.92;;;15.30;99.90;;;;;;5093894;28;20051;-65
2023/08/17 01:20:20;;;;;;;7.68;3.65;;;15.30;99.90;;;;;;5074853;28;20051;-65
2023/08/17 01:22:50;;;;;;;6.15;2.78;;;15.20;99.90;;;;;;5075616;28;20048;-65
2023/08/17 01:25:15;;;;;;;6.78;3.13;;;15.20;99.90;;;;;;5093878;28;20036;-65
2023/08/17 01:27:44;;;;;;;6.60;3.17;;;15.20;99.90;;;;;;5074806;28;20428;-65
2023/08/17 01:30:12;;;;;;;7.35;3.20;;;15.20;99.90;;;;;;5093731;28;20044;-65
2023/08/17 01:32:41;;;;;;;7.72;2.83;;;15.20;99.90;;;;;;5092640;28;20040;-65
2023/08/17 01:35:30;;;;;;;8.63;3.13;;;15.20;99.90;;;;;;5093505;28;20491;-65
2023/08/17 01:37:59;;;;;;;9.23;3.30;;;15.20;99.90;;;;;;5070164;28;20505;-65
2023/08/17 01:40:28;;;;;;;7.80;2.70;;;15.20;99.90;;;;;;5074149;28;20129;-65
2023/08/17 01:42:55;;;;;;;9.13;3.65;;;15.10;99.90;;;;;;5075590;28;20393;-65
2023/08/17 01:45:21;;;;;;;6.50;3.10;;;15.10;99.90;;;;;;5093172;28;20036;-65
2023/08/17 01:47:49;;;;;;;8.07;3.45;;;15.10;99.90;;;;;;5092735;28;20044;-65
2023/08/17 01:50:15;;;;;;;12.27;3.50;;;15.10;99.90;;;;;;5074968;28;20081;-65
2023/08/17 01:52:40;;;;;;;8.05;3.30;;;15.10;99.90;;;;;;5092989;28;20562;-65
2023/08/17 01:55:06;;;;;;;7.88;3.15;;;15.10;99.90;;;;;;5074125;28;20229;-65
2023/08/17 01:57:32;;;;;;;7.82;2.92;;;15.10;99.90;;;;;;5074949;28;20036;-65
2023/08/17 01:59:57;;;;;;;8.32;3.17;;;15.10;99.90;;;;;;5075166;28;20048;-65
2023/08/17 02:02:23;;;;;;;6.60;3.13;;;15.10;99.90;;;;;;5074529;28;20042;-65
2023/08/17 02:04:49;;;;;;;7.10;3.42;;;15.10;99.90;;;;;;5058574;28;20105;-65
2023/08/17 02:07:15;;;;;;;8.60;3.67;;;15.10;99.90;;;;;;5093068;28;20485;-65
2023/08/17 02:09:40;;;;;;;8.63;3.65;;;15.10;99.90;;;;;;5073900;28;20036;-65
2023/08/17 02:12:08;;;;;;;11.13;3.38;;;15.10;99.90;;;;;;5092889;28;20044;-65
2023/08/17 02:14:33;;;;;;;11.15;3.67;;;15.10;99.90;;;;;;5075064;28;20062;-64
2023/08/17 02:16:59;;;;;;;10.82;3.80;;;15.10;99.90;;;;;;5074516;28;20044;-65
2023/08/17 02:19:25;;;;;;;6.65;2.75;;;15.20;99.90;;;;;;5074416;28;20480;-64
2023/08/17 02:21:51;;;;;;;7.55;2.80;;;15.20;99.90;;;;;;5074005;28;20404;-64
2023/08/17 02:24:17;;;;;;;10.90;3.30;;;15.20;99.90;;;;;;5074427;28;20040;-65
2023/08/17 02:26:42;;;;;;;6.45;3.00;;;15.20;99.90;;;;;;5074653;28;20039;-65
2023/08/17 02:29:08;;;;;;;8.13;2.95;;;15.30;99.90;;;;;;5056865;28;20667;-65
2023/08/17 02:31:34;;;;;;;7.75;3.15;;;15.30;99.90;;;;;;5074771;28;20074;-65
2023/08/17 02:34:04;;;;;;;6.75;3.15;;;15.30;99.90;;;;;;5075004;28;20052;-64
2023/08/17 02:36:31;;;;;;;9.48;2.95;;;15.30;99.90;;;;;;5091536;28;20047;-65
2023/08/17 02:38:57;;;;;;;8.10;2.35;;;15.30;99.90;;;;;;5074444;28;20044;-65
2023/08/17 02:41:23;;;;;;;9.70;3.28;;;15.30;99.90;;;;;;5074612;28;20106;-64
2023/08/17 02:43:48;;;;;;;8.23;3.15;;;15.30;99.90;;;;;;5091635;28;20043;-64
2023/08/17 02:46:15;;;;;;;8.60;3.50;;;15.30;99.90;;;;;;5092581;28;20028;-64
2023/08/17 02:48:40;;;;;;;7.93;3.30;;;15.20;99.90;;;;;;5092265;28;20044;-65
2023/08/17 02:51:06;;;;;;;7.95;3.33;;;15.20;99.90;;;;;;5073321;28;20432;-65
2023/08/17 02:53:32;;;;;;;7.90;3.00;;;15.30;99.90;;;;;;5056697;28;20055;-64
2023/08/17 02:55:57;;;;;;;10.85;3.40;;;15.30;99.90;;;;;;5058060;28;20050;-64
2023/08/17 02:58:23;;;;;;;7.90;3.28;;;15.30;99.90;;;;;;5056595;28;20562;-64
2023/08/17 03:00:52;;;;;;;9.57;3.83;;;15.30;99.90;;;;;;5074450;28;20034;-65
2023/08/17 03:03:17;;;;;;;7.60;3.60;;;15.30;99.90;;;;;;5074045;28;20057;-64
2023/08/17 03:05:43;;;;;;;7.22;3.25;;;15.40;99.90;;;;;;5091418;28;20506;-64
2023/08/17 03:08:09;;;;;;;7.85;3.00;;;15.40;99.90;;;;;;5074019;28;20036;-64
2023/08/17 03:10:34;;;;;;;7.05;2.80;;;15.40;99.90;;;;;;5092034;28;20035;-65
2023/08/17 03:13:00;;;;;;;9.13;2.83;;;15.40;99.90;;;;;;5073466;28;20123;-64
2023/08/17 03:15:26;;;;;;;6.50;2.60;;;15.40;99.90;;;;;;5092042;28;20393;-65
2023/08/17 03:17:51;;;;;;;5.63;2.28;;;15.40;99.90;;;;;;5073836;28;20032;-64
2023/08/17 03:20:17;;;;;;;4.80;2.30;;;15.40;99.90;;;;;;5073010;28;20075;-64
2023/08/17 03:22:42;;;;;;;7.05;2.38;;;15.40;99.90;;;;;;5091843;28;20079;-64
2023/08/17 03:25:08;;;;;;;6.30;2.63;;;15.50;99.90;;;;;;5091030;28;20115;-64
2023/08/17 03:27:34;;;;;;;7.13;2.70;;;15.50;99.90;;;;;;5073990;28;20397;-64
2023/08/17 03:30:00;;;;;;;7.13;2.17;;;15.40;99.90;;;;;;5074036;28;20512;-64
2023/08/17 03:32:25;;;;;;;6.90;2.30;;;15.40;99.90;;;;;;5073142;28;20048;-64
2023/08/17 03:34:51;;;;;;;7.38;2.38;;;15.40;99.90;;;;;;5091861;28;20036;-64
2023/08/17 03:37:17;;;;;;;5.65;2.38;;;15.40;99.90;;;;;;5073545;28;20558;-64
2023/08/17 03:39:42;;;;;;;6.15;2.50;;;15.40;99.90;;;;;;5072682;28;20097;-64
2023/08/17 03:42:08;;;;;;;5.60;2.38;;;15.40;99.90;;;;;;5091811;28;20040;-64
2023/08/17 03:44:34;;;;;;;6.93;2.63;;;15.40;99.90;;;;;;5073728;28;20470;-64
2023/08/17 03:46:59;;;;;;;6.30;2.30;;;15.40;99.90;;;;;;5073182;28;20040;-64
2023/08/17 03:49:25;;;;;;;8.43;3.40;;;15.40;99.90;;;;;;5073324;28;20071;-64
2023/08/17 03:51:51;;;;;;;6.50;3.17;;;15.40;99.90;;;;;;5091586;28;20036;-64
2023/08/17 03:54:18;;;;;;;6.60;3.58;;;15.40;99.90;;;;;;5072838;28;20040;-64
2023/08/17 03:56:44;;;;;;;6.20;3.42;;;15.30;99.90;;;;;;5091597;28;20460;-64
2023/08/17 03:59:09;;;;;;;7.65;3.67;;;15.40;99.90;;;;;;5073351;28;20080;-64
2023/08/17 04:01:35;;;;;;;7.78;3.45;;;15.30;99.90;;;;;;5072736;28;20047;-64
2023/08/17 04:04:00;;;;;;;9.73;3.95;;;15.40;99.90;;;;;;5074061;28;20052;-64
2023/08/17 04:06:26;;;;;;;7.78;4.30;;;15.40;99.90;;;;;;5077082;28;20032;-64
2023/08/17 04:08:52;;;;;;;7.70;3.53;;;15.40;99.90;;;;;;5076304;28;20057;-64
2023/08/17 04:11:17;;;;;;;7.13;3.35;;;15.40;99.90;;;;;;5077043;28;20093;-64
2023/08/17 04:13:43;;;;;;;7.72;3.15;;;15.50;99.90;;;;;;5075025;28;20427;-64
2023/08/17 04:16:09;;;;;;;6.75;3.10;;;15.50;99.90;;;;;;5056217;28;20048;-64
2023/08/17 04:18:34;;;;;;;5.90;3.10;;;15.50;99.90;;;;;;5074836;28;20041;-64
2023/08/17 04:21:00;;;;;;;6.72;2.85;;;15.50;99.90;;;;;;5057179;28;20044;-64
2023/08/17 04:23:26;;;;;;;6.90;3.08;;;15.50;99.90;;;;;;5056145;28;20401;-64
2023/08/17 04:25:55;;;;;;;9.68;2.97;;;15.60;99.90;;;;;;5074379;28;20096;-64
2023/08/17 04:28:20;;;;;;;6.43;2.30;;;15.60;99.90;;;;;;5076855;28;20040;-64
2023/08/17 04:30:46;;;;;;;6.65;2.25;;;15.60;99.90;;;;;;5076215;28;20173;-64
2023/08/17 04:33:12;;;;;;;4.82;2.00;;;15.70;99.90;;;;;;5059921;28;20048;-64
2023/08/17 04:35:39;;;;;;;5.15;2.00;;;15.70;99.90;;;;;;5094011;28;20392;-64
2023/08/17 04:38:04;;;;;;;4.43;2.20;;;15.70;99.90;;;;;;5076853;28;20052;-64
2023/08/17 04:40:30;;;;;;;6.35;2.13;;;15.80;99.90;;;;;;5093873;28;20447;-64
2023/08/17 04:42:56;;;;;;;7.15;2.20;;;15.80;99.90;;;;;;5094342;28;20032;-64
2023/08/17 04:45:22;;;;;;;7.30;2.13;;;15.80;99.90;;;;;;5076225;28;20043;-64
2023/08/17 04:47:47;;;;;;;4.60;1.98;;;15.80;99.90;;;;;;5076279;28;20093;-64
2023/08/17 04:50:16;;;;;;;4.85;1.98;;;15.90;99.90;;;;;;5071958;28;20059;-64
2023/08/17 04:52:43;;;;;;;5.20;2.30;;;15.90;99.90;;;;;;5074090;28;20040;-64
2023/08/17 04:55:09;;;;;;;4.38;1.50;;;15.90;99.90;;;;;;5073187;28;20494;-64
2023/08/17 04:57:34;;;;;;;5.50;2.00;;;15.90;99.90;;;;;;5072349;28;20128;-64
2023/08/17 05:00:00;;;;;;;3.58;1.30;;;15.90;99.90;;;;;;5074448;28;20128;-64
2023/08/17 05:02:26;;;;;;;5.63;1.95;;;16.00;99.90;;;;;;5072652;28;20041;-64
2023/08/17 05:04:52;;;;;;;6.00;2.00;;;16.00;99.90;;;;;;5071964;28;20033;-64
2023/08/17 05:07:17;;;;;;;5.72;2.20;;;16.00;99.90;;;;;;5073954;28;20037;-64
2023/08/17 05:09:43;;;;;;;3.55;1.42;;;16.00;99.90;;;;;;5072610;28;20051;-64
2023/08/17 05:12:09;;;;;;;7.53;2.17;;;16.00;99.90;;;;;;5072926;28;20107;-64
2023/08/17 05:14:34;;;;;;;6.93;1.77;;;16.00;99.90;;;;;;5072511;28;20087;-64
2023/08/17 05:17:00;;;;;;;5.90;1.70;;;16.00;99.90;;;;;;5055428;28;20040;-64
2023/08/17 05:19:26;;;;;;;4.03;1.40;;;16.00;99.90;;;;;;5071708;28;20044;-64
2023/08/17 05:21:53;;;;;;;4.00;1.60;;;16.00;99.90;;;;;;5072492;28;20036;-64
2023/08/17 05:24:20;;;;;;;4.40;1.52;;;16.10;99.90;;;;;;5072398;28;20537;-64
2023/08/17 05:26:46;;;;;;;7.35;1.85;;;16.10;99.90;;;;;;5071751;28;20090;-64
2023/08/17 05:29:12;;;;;;;4.70;1.83;;;16.10;99.90;;;;;;5073562;28;20378;-64
2023/08/17 05:31:37;;;;;;;5.10;1.85;;;16.10;99.90;;;;;;5072147;28;20055;-64
2023/08/17 05:34:03;;;;;;;5.38;1.77;;;16.10;99.90;;;;;;5071742;28;20510;-64
2023/08/17 05:36:29;;;;;;;5.32;1.73;;;16.10;99.90;;;;;;5055291;28;20043;-64
2023/08/17 05:38:55;;;;;;;4.80;2.00;;;16.10;99.90;;;;;;5072520;28;20405;-64
2023/08/17 05:41:20;;;;;;;4.15;1.40;;;16.10;99.90;;;;;;5072269;28;20052;-64
2023/08/17 05:43:46;;;;;;;6.53;1.67;;;16.10;99.90;;;;;;5072969;28;20050;-64
2023/08/17 05:46:12;;;;;;;8.13;2.08;;;16.20;99.90;;;;;;5072344;28;20106;-64
2023/08/17 05:48:37;;;;;;;4.43;1.52;;;16.20;99.90;;;;;;5073156;28;20068;-64
2023/08/17 05:51:03;;;;;;;4.70;1.70;;;16.30;99.90;;;;;;5071820;28;20475;-64
2023/08/17 05:53:29;;;;;;;3.97;1.65;;;16.40;99.90;;;;;;5070622;28;20529;-64
2023/08/17 05:55:54;;;;;;;6.07;2.17;;;16.50;99.90;;;;;;5073469;28;20033;-64
2023/08/17 05:58:20;;;;;;;6.10;2.17;;;16.50;99.90;;;;;;5071594;28;20040;-64
2023/08/17 06:00:45;;;;;;;4.00;1.60;;;16.60;99.90;;;;;;5070920;28;20044;-64
2023/08/17 06:03:11;;;;;;;4.97;1.75;;;16.70;99.90;;;;;;5071626;28;20044;-64
2023/08/17 06:05:37;;;;;;;5.32;2.15;;;16.70;99.90;;;;;;5055021;28;20119;-64
2023/08/17 06:08:03;;;;;;;4.85;1.60;;;16.80;99.90;;;;;;5072202;28;20132;-64
2023/08/17 06:10:29;;;;;;;5.90;1.92;;;16.90;99.90;;;;;;5072110;28;20036;-64
2023/08/17 06:12:55;;;;;;;4.50;1.77;;;17.00;99.90;;;;;;5070627;28;20032;-64
2023/08/17 06:15:22;;;;;;;8.25;2.10;;;17.10;99.90;;;;;;5064842;28;20051;-64
2023/08/17 06:17:49;;;;;;;6.55;2.17;;;17.20;99.90;;;;;;5072537;28;20485;-64
2023/08/17 06:20:16;;;;;;;5.97;2.10;;;17.30;99.90;;;;;;5072485;28;20141;-68
2023/08/17 06:22:41;;;;;;;5.53;1.63;;;17.30;99.90;;;;;;5072015;28;20036;-72
2023/08/17 06:25:08;;;;;;;7.13;1.63;;;17.40;99.90;;;;;;5070211;28;20028;-64
2023/08/17 06:27:35;;;;;;;4.75;1.80;;;17.40;99.90;;;;;;5059023;28;20133;-63
2023/08/17 06:30:02;;;;;;;4.00;1.60;;;17.50;99.90;;;;;;5067762;28;20071;-65
2023/08/17 06:32:28;;;;;;;7.53;2.08;;;17.60;99.90;;;;;;5068452;28;20131;-74
2023/08/17 06:34:54;;;;;;;6.45;1.77;;;17.70;99.90;;;;;;5069921;28;20127;-73
2023/08/17 06:37:20;;;;;;;5.65;1.85;;;17.70;99.90;;;;;;5068687;28;20041;-66
2023/08/17 06:39:45;;;;;;;6.45;2.00;;;17.80;99.90;;;;;;5067633;28;20055;-65
2023/08/17 06:42:11;;;;;;;3.35;1.50;;;17.70;99.90;;;;;;5067313;28;20042;-66
2023/08/17 06:44:37;;;;;;;5.75;1.50;;;17.80;99.90;;;;;;5067432;28;20378;-65
2023/08/17 06:47:03;;;;;;;4.32;1.75;;;17.80;99.90;;;;;;5069655;28;20063;-66
2023/08/17 06:49:30;;;;;;;3.60;1.75;;;17.90;99.90;;;;;;5072985;28;20500;-68
2023/08/17 06:51:56;;;;;;;5.88;1.42;;;17.90;99.90;;;;;;5053841;28;20140;-68
2023/08/17 06:54:21;;;;;;;4.07;1.83;;;17.90;99.90;;;;;;5070804;28;20139;-67
2023/08/17 06:56:47;;;;;;;5.13;1.77;;;18.00;99.90;;;;;;5087971;28;20497;-65
2023/08/17 06:59:13;;;;;;;4.80;1.63;;;18.00;99.90;;;;;;5070795;28;20245;-66
2023/08/17 07:01:38;;;;;;;5.10;1.40;;;18.00;99.90;;;;;;5070258;28;20044;-66
2023/08/17 07:04:04;;;;;;;5.60;1.40;;;18.10;99.90;;;;;;5070553;28;20086;-67
2023/08/17 07:06:30;;;;;;;5.80;2.08;;;18.10;99.90;;;;;;5069615;28;20498;-68
2023/08/17 07:08:56;;;;;;;4.50;1.85;;;18.10;99.90;;;;;;5070907;28;20071;-69
2023/08/17 07:11:22;;;;;;;4.68;1.58;;;18.20;99.90;;;;;;5087639;28;20036;-71
2023/08/17 07:13:48;;;;;;;3.67;1.30;;;18.30;99.90;;;;;;5064827;28;20048;-67
2023/08/17 07:16:13;;;;;;;5.78;1.73;;;18.30;99.90;;;;;;5069708;28;20047;-64
2023/08/17 07:18:39;;;;;;;4.82;1.58;;;18.40;99.90;;;;;;5052842;28;20065;-65
2023/08/17 07:21:05;;;;;;;3.38;1.20;;;18.30;99.90;;;;;;5066385;28;20054;-65
2023/08/17 07:23:31;;;;;;;3.33;1.35;;;18.40;99.90;;;;;;5054184;28;20474;-64
2023/08/17 07:25:57;;;;;;;3.67;1.42;;;18.40;99.90;;;;;;5069844;28;20043;-65
2023/08/17 07:28:23;;;;;;;3.80;1.20;;;18.30;99.90;;;;;;5054002;28;20043;-65
2023/08/17 07:30:49;;;;;;;3.97;1.40;;;18.40;99.90;;;;;;5070699;28;20097;-65
2023/08/17 07:33:14;;;;;;;5.85;1.50;;;18.40;99.90;;;;;;5070129;28;20044;-64
2023/08/17 07:35:40;;;;;;;5.00;1.45;;;18.40;99.90;;;;;;5053967;28;20048;-64
2023/08/17 07:38:06;;;;;;;3.15;1.30;;;18.50;99.90;;;;;;5088793;28;20044;-64
2023/08/17 07:40:31;;;;;;;4.95;1.30;;;18.50;99.90;;;;;;5066548;28;20072;-64
2023/08/17 07:42:57;;;;;;;3.95;0.98;;;18.70;99.90;;;;;;5089771;28;20036;-64
2023/08/17 07:45:23;;;;;;;3.92;1.10;;;18.80;99.90;;;;;;5072311;28;20040;-64
2023/08/17 07:47:48;;;;;;;2.70;1.05;;;18.90;99.90;;;;;;5092434;28;20036;-64
2023/08/17 07:50:14;;;;;;;3.38;1.48;;;19.00;99.90;;;;;;5071025;28;20106;-65
2023/08/17 07:52:40;;;;;;;5.22;1.55;;;19.10;99.90;;;;;;5070735;28;20052;-64
2023/08/17 07:55:05;;;;;;;6.47;1.40;;;19.20;99.90;;;;;;5071170;28;20045;-64
2023/08/17 07:57:31;;;;;;;4.40;1.30;;;19.30;99.90;;;;;;5067966;28;20123;-65
2023/08/17 07:59:57;;;;;;;4.00;1.48;;;19.50;99.90;;;;;;5070350;28;20412;-64
2023/08/17 08:02:23;;;;;;;7.18;1.10;;;19.60;99.90;;;;;;5050428;28;20087;-64
2023/08/17 08:04:48;;;;;;;3.95;1.20;;;19.70;99.90;;;;;;5050785;28;20045;-64
2023/08/17 08:07:14;;;;;;;4.22;1.27;;;19.60;99.90;;;;;;5056726;28;20676;-64
2023/08/17 08:09:40;;;;;;;4.07;1.77;;;19.50;99.90;;;;;;5071988;28;20032;-64
2023/08/17 08:12:07;;;;;;;3.63;1.40;;;19.30;99.90;;;;;;5072282;28;20062;-64
2023/08/17 08:14:34;;;;;;;7.25;1.90;;;19.00;99.90;;;;;;5070094;28;20094;-64
2023/08/17 08:16:59;;;;;;;5.25;1.58;;;18.80;99.90;;;;;;5071991;28;20067;-64
2023/08/17 08:19:25;;;;;;;7.35;1.73;;;18.70;99.90;;;;;;5071893;28;20450;-64
2023/08/17 08:21:51;;;;;;;3.47;1.33;;;18.60;99.90;;;;;;5061216;28;20055;-63
2023/08/17 08:24:16;;;;;;;3.92;1.20;;;18.50;99.90;;;;;;5068708;28;20483;-64
2023/08/17 08:26:42;;;;;;;5.03;1.30;;;18.50;99.90;;;;;;5048815;28;20044;-64
2023/08/17 08:29:08;;;;;;;3.10;1.00;;;18.50;99.90;;;;;;5068063;28;20041;-64
2023/08/17 08:31:33;;;;;;;4.82;1.20;;;18.50;99.90;;;;;;5034214;28;20060;-64
2023/08/17 08:33:59;;;;;;;4.38;1.90;;;18.70;99.90;;;;;;5051065;28;20053;-64
2023/08/17 08:36:25;;;;;;;4.80;1.67;;;18.90;99.90;;;;;;5069056;28;20127;-64
2023/08/17 08:38:51;;;;;;;5.05;1.90;;;19.10;99.90;;;;;;5071814;28;20068;-64
2023/08/17 08:41:17;;;;;;;5.68;1.80;;;19.40;99.90;;;;;;5068148;28;20162;-64
2023/08/17 08:43:44;;;;;;;4.72;1.55;;;19.60;99.90;;;;;;5059845;28;20439;-65
2023/08/17 08:46:11;;;;;;;4.88;1.90;;;19.60;99.90;;;;;;5060475;28;20040;-65
2023/08/17 08:48:39;;;;;;;6.78;2.08;;;19.60;99.90;;;;;;5072618;28;20055;-64
2023/08/17 08:51:11;;;;;;;7.53;1.30;;;19.70;99.90;;;;;;5071701;28;20048;-66
2023/08/17 08:53:38;;;;;;;4.95;1.58;;;19.60;99.90;;;;;;5073405;28;20589;-64
2023/08/17 08:56:06;;;;;;;4.72;1.23;;;19.50;99.90;;;;;;5073929;28;20044;-64
2023/08/17 08:58:33;;;;;;;5.70;1.48;;;19.40;99.90;;;;;;5072907;28;20033;-64
2023/08/17 09:01:00;;;;;;;3.90;1.48;;;19.30;99.90;;;;;;5056596;28;20033;-64
2023/08/17 09:03:26;;;;;;;3.88;1.35;;;19.40;99.90;;;;;;5072131;28;20051;-63
2023/08/17 09:05:52;;;;;;;5.72;1.50;;;19.20;99.90;;;;;;5073942;28;20070;-64
2023/08/17 09:08:24;;;;;;;4.03;1.40;;;19.10;99.90;;;;;;5056981;28;20472;-67
2023/08/17 09:10:50;;;;;;;3.80;1.25;;;19.00;99.90;;;;;;5052671;28;20033;-66
2023/08/17 09:13:16;;;;;;;3.92;1.42;;;18.90;99.90;;;;;;5052514;28;20036;-65
2023/08/17 09:15:42;;;;;;;3.17;1.45;;;18.90;99.90;;;;;;5055250;28;20036;-68
2023/08/17 09:18:07;;;;;;;4.05;1.42;;;19.00;99.90;;;;;;5072500;28;20058;-65
2023/08/17 09:20:39;;;;;;;3.42;1.45;;;19.10;99.90;;;;;;5073178;28;20405;-66
2023/08/17 09:23:12;;;;;;;3.92;1.30;;;19.30;99.90;;;;;;5051997;28;20607;-66
2023/08/17 09:25:40;;;;;;;4.97;1.50;;;19.60;99.90;;;;;;5052381;28;20036;-66
2023/08/17 09:28:14;;;;;;;3.70;1.40;;;19.60;99.90;;;;;;5051845;28;20041;-66
2023/08/17 09:30:51;;;;;;;4.05;1.90;;;19.60;99.90;;;;;;5051798;28;20159;-66
2023/08/17 09:33:28;;;;;;;5.32;1.40;;;19.60;99.90;;;;;;5056743;28;20497;-66
2023/08/17 09:35:55;;;;;;;4.45;1.48;;;19.50;99.90;;;;;;5065470;28;20067;-66
2023/08/17 09:38:21;;;;;;;4.90;1.85;;;19.40;99.90;;;;;;5070149;28;20044;-66
2023/08/17 09:40:47;;;;;;;5.07;1.50;;;19.30;99.90;;;;;;5070551;28;20051;-66
2023/08/17 09:43:14;;;;;;;7.13;1.95;;;19.40;99.90;;;;;;5066689;28;20028;-66
2023/08/17 09:45:43;;;;;;;5.25;1.48;;;19.50;99.90;;;;;;5071573;28;20046;-66
2023/08/17 09:48:08;;;;;;;6.97;1.70;;;19.50;99.90;;;;;;5071946;28;20098;-64
2023/08/17 09:50:35;;;;;;;4.15;1.40;;;19.40;99.90;;;;;;5071527;28;20052;-66
2023/08/17 09:53:04;;;;;;;5.13;1.98;;;19.40;99.90;;;;;;5049917;28;20040;-65
2023/08/17 09:55:33;;;;;;;5.47;1.95;;;19.40;99.90;;;;;;5052214;28;20032;-66
2023/08/17 09:58:00;;;;;;;6.22;1.98;;;19.50;99.90;;;;;;5069396;28;20048;-66
2023/08/17 10:00:27;;;;;;;4.38;1.67;;;19.60;99.90;;;;;;5057830;28;20520;-66
2023/08/17 10:02:53;;;;;;;4.20;1.60;;;19.70;99.90;;;;;;5068830;28;20036;-66
2023/08/17 10:05:20;;;;;;;6.95;1.40;;;19.80;99.90;;;;;;5058918;28;20091;-65
2023/08/17 10:07:51;;;;;;;6.00;1.92;;;19.70;99.90;;;;;;5049184;28;20482;-65
2023/08/17 10:10:26;;;;;;;5.68;1.88;;;19.60;99.90;;;;;;5051546;28;20087;-66
2023/08/17 10:13:04;;;;;;;5.18;1.80;;;19.60;99.90;;;;;;5065084;28;20138;-66
2023/08/17 10:15:32;;;;;;;3.28;1.25;;;19.50;99.90;;;;;;5060888;28;20080;-65
2023/08/17 10:18:24;;;;;;;6.07;1.92;;;19.50;99.90;;;;;;5068793;28;20048;-65
2023/08/17 10:21:01;;;;;;;6.70;1.88;;;19.40;99.90;;;;;;5048475;28;20131;-64
2023/08/17 10:23:28;;;;;;;3.70;1.52;;;19.50;99.90;;;;;;5051250;28;20159;-64
2023/08/17 10:25:53;;;;;;;4.70;1.48;;;19.70;99.90;;;;;;5069665;28;20032;-64
2023/08/17 10:28:22;;;;;;;5.68;1.55;;;20.00;99.90;;;;;;5066846;28;20056;-64
2023/08/17 10:30:48;;;;;;;6.18;1.70;;;20.10;99.90;;;;;;5068489;28;20083;-64
2023/08/17 10:33:15;;;;;;;9.18;2.60;;;20.20;99.90;;;;;;5069979;28;20037;-64
2023/08/17 10:35:42;;;;;;;7.55;1.77;;;20.10;99.90;;;;;;5067924;28;20033;-64
2023/08/17 10:38:08;;;;;;;7.35;1.55;;;20.10;99.90;;;;;;5070018;28;20037;-64
2023/08/17 10:40:41;;;;;;;5.72;1.55;;;19.90;99.90;;;;;;5072332;28;20090;-64
2023/08/17 10:43:07;;;;;;;7.63;1.92;;;19.70;99.90;;;;;;5070589;28;20562;-65
2023/08/17 10:45:34;;;;;;;7.20;1.80;;;19.60;99.90;;;;;;5054475;28;20036;-65
2023/08/17 10:48:09;;;;;;;6.97;1.70;;;19.60;99.90;;;;;;5054406;28;20040;-65
2023/08/17 10:50:36;;;;;;;5.38;1.85;;;19.70;99.90;;;;;;5069819;28;20143;-65
2023/08/17 10:53:10;;;;;;;7.00;2.20;;;19.80;99.90;;;;;;5070274;28;20052;-64
2023/08/17 10:55:37;;;;;;;4.00;1.63;;;19.80;99.90;;;;;;5060607;28;20320;-64
2023/08/17 10:58:04;;;;;;;5.13;1.77;;;19.80;99.90;;;;;;5070088;28;20044;-71
2023/08/17 11:00:41;;;;;;;7.53;2.17;;;19.70;99.90;;;;;;5051786;28;20408;-73
2023/08/17 11:03:09;;;;;;;6.00;1.73;;;19.70;99.90;;;;;;5070123;28;20229;-67
2023/08/17 11:05:51;;;;;;;8.18;1.77;;;19.90;99.90;;;;;;5072199;28;20036;-67
2023/08/17 11:08:50;;;;;;;5.50;1.60;;;20.20;99.90;;;;;;5071740;28;20047;-67
2023/08/17 11:11:16;;;;;;;7.13;1.80;;;20.30;99.90;;;;;;5069736;28;20037;-67
2023/08/17 11:13:46;;;;;;;3.03;1.17;;;20.40;99.90;;;;;;5070170;28;20393;-67
2023/08/17 11:16:19;;;;;;;5.95;2.10;;;20.30;99.90;;;;;;5070647;28;20056;-67
2023/08/17 11:18:46;;;;;;;4.50;1.85;;;20.30;99.90;;;;;;5053845;28;20044;-67
2023/08/17 11:21:14;;;;;;;4.97;1.75;;;20.20;99.90;;;;;;5071894;28;20045;-67
2023/08/17 11:23:40;;;;;;;4.82;1.85;;;20.20;99.90;;;;;;5069637;28;20044;-67
2023/08/17 11:26:08;;;;;;;3.92;1.55;;;20.20;99.90;;;;;;5070601;28;20036;-67
2023/08/17 11:28:38;;;;;;;4.07;1.60;;;20.20;99.90;;;;;;5053766;28;20045;-67
2023/08/17 11:31:06;;;;;;;4.15;1.48;;;20.20;99.90;;;;;;5070253;28;20045;-67
2023/08/17 11:33:33;;;;;;;8.90;1.80;;;20.20;99.90;;;;;;5070417;28;20053;-68
2023/08/17 11:36:01;;;;;;;6.03;2.00;;;20.20;99.90;;;;;;5070750;28;20084;-68
2023/08/17 11:38:34;;;;;;;6.43;2.15;;;20.10;99.90;;;;;;5069830;28;20063;-68
2023/08/17 11:41:00;;;;;;;5.72;2.00;;;20.10;99.90;;;;;;5072057;28;20032;-67
2023/08/17 11:43:28;;;;;;;9.20;1.88;;;20.00;99.90;;;;;;5070661;28;20393;-67
2023/08/17 11:45:58;;;;;;;4.88;1.90;;;20.00;99.90;;;;;;5070984;28;20564;-67
2023/08/17 11:48:24;;;;;;;5.82;1.73;;;19.90;99.90;;;;;;5070349;28;20032;-68
2023/08/17 11:50:50;;;;;;;6.47;1.75;;;20.00;99.90;;;;;;5088710;28;20048;-67
2023/08/17 11:53:16;;;;;;;6.47;1.80;;;20.00;99.90;;;;;;5072920;28;20044;-67
2023/08/17 11:55:42;;;;;;;6.82;1.88;;;19.90;99.90;;;;;;5073591;28;20074;-68
2023/08/17 11:58:07;;;;;;;5.10;2.00;;;20.00;99.90;;;;;;5073608;28;20397;-67
2023/08/17 12:00:41;;;;;;;17.23;2.83;;;20.00;99.90;;;;;;5090676;28;20127;-67
2023/08/17 12:03:07;;;;;;;11.63;2.30;;;20.10;99.90;;;;;;5073813;28;20063;-67
2023/08/17 12:05:33;;;;;;;3.78;1.80;;;20.10;99.90;;;;;;5091193;28;20473;-67
2023/08/17 12:08:02;;;;;;;5.25;1.98;;;20.10;99.90;;;;;;5056917;28;20039;-67
2023/08/17 12:10:28;;;;;;;4.60;1.60;;;20.20;99.90;;;;;;5056808;28;20430;-67
2023/08/17 12:12:58;;;;;;;6.70;1.80;;;20.10;99.90;;;;;;5056175;28;20478;-67
2023/08/17 12:15:26;;;;;;;6.38;2.25;;;20.10;99.90;;;;;;5073538;28;20130;-67
2023/08/17 12:17:52;;;;;;;6.65;1.98;;;20.20;99.90;;;;;;5056621;28;20485;-67
2023/08/17 12:20:19;;;;;;;5.43;2.13;;;20.20;99.90;;;;;;5072500;28;20044;-67
2023/08/17 12:22:46;;;;;;;7.00;1.88;;;20.30;99.90;;;;;;5091470;28;20119;-67
2023/08/17 12:25:13;;;;;;;6.50;2.17;;;20.20;99.90;;;;;;5091600;28;20494;-67
2023/08/17 12:27:39;;;;;;;6.80;2.05;;;20.10;99.90;;;;;;5075127;28;20048;-67
2023/08/17 12:30:11;;;;;;;8.57;2.50;;;20.20;99.90;;;;;;5077136;28;20044;-67
2023/08/17 12:32:36;;;;;;;6.05;2.15;;;20.10;99.90;;;;;;5060083;28;20086;-67
2023/08/17 12:35:03;;;;;;;5.70;2.40;;;20.10;99.90;;;;;;5094389;28;20063;-67
2023/08/17 12:37:29;;;;;;;6.70;2.30;;;20.20;99.90;;;;;;5076519;28;20040;-67
2023/08/17 12:39:55;;;;;;;4.72;2.40;;;20.20;99.90;;;;;;5095146;28;20040;-67
2023/08/17 12:42:21;;;;;;;7.13;2.47;;;20.10;99.90;;;;;;5076108;28;20117;-67
2023/08/17 12:44:47;;;;;;;6.75;2.67;;;20.00;99.90;;;;;;5076696;28;21076;-67